Time;durP1;ratioP1;P1;durP2;ratioP2;P2;SDS_P1;SDS_P2;PMS_P1;PMS_P2;Temp;Humidity;BMP_temperature;BMP_pressure;BME280_temperature;BME280_humidity;BME280_pressure;Samples;Min_cycle;Max_cycle;Signal;HPM_P1;HPM_P2
2022/05/07 04:05:23;;;;;;;4.60;3.78;;;7.60;99.90;;;;;;5031976;22;20365;-64
2022/05/07 04:07:48;;;;;;;5.80;5.23;;;7.60;99.90;;;;;;5014352;28;20654;-66
2022/05/07 04:10:14;;;;;;;5.00;4.60;;;7.60;99.90;;;;;;5013722;28;20607;-63
2022/05/07 04:12:46;;;;;;;6.17;5.67;;;7.60;99.90;;;;;;5031792;28;20259;-65
2022/05/07 04:15:12;;;;;;;5.05;4.25;;;7.60;99.90;;;;;;5013612;28;20701;-64
2022/05/07 04:17:38;;;;;;;6.03;5.53;;;7.60;99.90;;;;;;5011175;28;20186;-65
2022/05/07 04:20:04;;;;;;;5.60;4.50;;;7.50;99.90;;;;;;4998056;28;20617;-65
2022/05/07 04:22:32;;;;;;;5.75;5.13;;;7.60;99.90;;;;;;5002944;28;20212;-65
2022/05/07 04:24:58;;;;;;;12.30;5.32;;;7.60;99.90;;;;;;5013215;28;20189;-65
2022/05/07 04:27:23;;;;;;;6.57;4.80;;;7.60;99.90;;;;;;5004821;28;20179;-64
2022/05/07 04:29:49;;;;;;;5.93;4.63;;;7.70;99.90;;;;;;4993836;28;20174;-66
2022/05/07 04:32:14;;;;;;;6.17;4.23;;;7.70;99.90;;;;;;4999742;28;20170;-66
2022/05/07 04:34:40;;;;;;;6.57;4.67;;;7.80;99.90;;;;;;5011815;28;20232;-66
2022/05/07 04:37:06;;;;;;;5.63;4.60;;;7.90;99.90;;;;;;5012708;28;20220;-65
2022/05/07 04:39:34;;;;;;;5.13;4.63;;;8.20;99.90;;;;;;5013429;28;20182;-65
2022/05/07 04:42:00;;;;;;;7.80;5.15;;;8.40;99.90;;;;;;5010700;28;20417;-67
2022/05/07 04:44:26;;;;;;;6.65;5.00;;;8.80;99.90;;;;;;5012945;28;20214;-65
2022/05/07 04:46:52;;;;;;;7.30;5.97;;;9.00;99.90;;;;;;5016181;28;20224;-65
2022/05/07 04:49:21;;;;;;;6.20;5.33;;;9.30;99.90;;;;;;5017101;28;20260;-65
2022/05/07 04:51:50;;;;;;;7.18;6.20;;;9.40;99.90;;;;;;5007191;28;20167;-64
2022/05/07 04:54:19;;;;;;;5.63;5.13;;;9.50;99.90;;;;;;5012546;28;20206;-67
2022/05/07 04:56:46;;;;;;;5.78;5.18;;;9.50;99.90;;;;;;5014903;28;20253;-64
2022/05/07 04:59:15;;;;;;;7.05;5.60;;;9.80;99.90;;;;;;5016354;28;20417;-64
2022/05/07 05:01:41;;;;;;;6.07;5.47;;;9.80;99.90;;;;;;5012998;28;20714;-65
2022/05/07 05:04:07;;;;;;;8.03;5.93;;;9.90;99.90;;;;;;5007070;28;20210;-65
2022/05/07 05:06:32;;;;;;;6.00;5.40;;;10.00;99.90;;;;;;5016364;28;20741;-65
2022/05/07 05:08:58;;;;;;;4.80;4.50;;;10.10;99.90;;;;;;5016015;28;20436;-66
2022/05/07 05:11:25;;;;;;;9.20;7.00;;;10.40;99.90;;;;;;5009047;28;20186;-67
2022/05/07 05:13:51;;;;;;;6.18;4.38;;;10.70;99.90;;;;;;5013252;28;20261;-67
2022/05/07 05:16:16;;;;;;;8.70;4.70;;;10.90;99.90;;;;;;5004600;28;20184;-67
2022/05/07 05:18:42;;;;;;;5.37;4.87;;;11.00;99.90;;;;;;5007615;28;20642;-67
2022/05/07 05:21:08;;;;;;;11.13;4.20;;;11.20;99.90;;;;;;5006291;28;20550;-65
2022/05/07 05:23:33;;;;;;;6.50;4.53;;;11.30;99.90;;;;;;5004149;28;20203;-65
2022/05/07 05:25:59;;;;;;;7.20;4.87;;;11.40;99.90;;;;;;5011227;28;20210;-65
2022/05/07 05:28:25;;;;;;;5.60;5.10;;;11.40;99.90;;;;;;4996330;28;20180;-65
2022/05/07 05:30:53;;;;;;;6.00;4.17;;;11.50;99.90;;;;;;5014368;28;20653;-66
2022/05/07 05:33:20;;;;;;;4.70;4.30;;;11.80;99.90;;;;;;5015543;28;20732;-66
2022/05/07 05:35:46;;;;;;;5.27;4.77;;;12.10;99.90;;;;;;5016137;28;20674;-66
2022/05/07 05:38:11;;;;;;;6.17;5.00;;;12.50;99.90;;;;;;5016129;28;20897;-66
2022/05/07 05:40:37;;;;;;;5.20;4.80;;;12.70;99.90;;;;;;5013928;28;20443;-65
2022/05/07 05:43:03;;;;;;;5.60;4.03;;;12.90;99.90;;;;;;5014917;28;20293;-65
2022/05/07 05:45:29;;;;;;;4.83;4.43;;;13.10;99.90;;;;;;4998316;28;20174;-65
2022/05/07 05:47:54;;;;;;;4.70;4.30;;;13.10;99.90;;;;;;5015800;28;20251;-65
2022/05/07 05:50:20;;;;;;;4.63;4.00;;;13.10;99.90;;;;;;4998389;28;20173;-65
2022/05/07 05:52:46;;;;;;;5.07;4.47;;;12.90;99.90;;;;;;5015278;28;20182;-65
2022/05/07 05:55:12;;;;;;;4.77;4.37;;;12.70;99.90;;;;;;5015492;28;20464;-64
2022/05/07 05:57:38;;;;;;;4.40;4.00;;;12.60;99.90;;;;;;5015432;28;20914;-64
2022/05/07 06:00:07;;;;;;;4.77;4.37;;;12.60;99.90;;;;;;5015845;28;20413;-65
2022/05/07 06:02:33;;;;;;;4.20;3.77;;;12.60;99.90;;;;;;5016237;28;20200;-65
2022/05/07 06:04:59;;;;;;;5.43;4.80;;;12.60;99.90;;;;;;4997863;28;20459;-65
2022/05/07 06:07:25;;;;;;;6.73;4.80;;;12.60;99.90;;;;;;5015250;28;20427;-65
2022/05/07 06:09:50;;;;;;;5.10;4.60;;;12.70;99.90;;;;;;5015605;28;20418;-64
2022/05/07 06:12:16;;;;;;;6.07;4.20;;;12.70;99.90;;;;;;5014962;28;20431;-65
2022/05/07 06:14:42;;;;;;;4.50;3.50;;;13.00;99.90;;;;;;5014736;28;20205;-65
2022/05/07 06:17:08;;;;;;;6.60;5.70;;;13.20;99.90;;;;;;5015529;28;20496;-65
2022/05/07 06:19:34;;;;;;;22.67;5.67;;;13.30;99.90;;;;;;5015646;28;20309;-69
2022/05/07 06:21:59;;;;;;;6.50;5.03;;;13.30;99.90;;;;;;5015119;28;20179;-66
2022/05/07 06:29:53;;;;;;;6.53;5.90;;;13.10;99.90;;;;;;4995857;28;20417;-65
2022/05/07 06:32:19;;;;;;;6.30;5.10;;;13.00;99.90;;;;;;4995192;28;20422;-65
2022/05/07 06:34:45;;;;;;;7.07;5.93;;;13.00;99.90;;;;;;4995470;28;20184;-64
2022/05/07 06:37:11;;;;;;;7.70;5.57;;;13.20;99.90;;;;;;4995442;28;20181;-64
2022/05/07 06:39:37;;;;;;;5.40;4.90;;;13.20;99.90;;;;;;4995321;28;20410;-67
2022/05/07 06:42:03;;;;;;;7.57;6.53;;;13.40;99.90;;;;;;4995360;28;20950;-67
2022/05/07 06:44:29;;;;;;;7.10;5.47;;;13.50;99.90;;;;;;4997159;28;20982;-68
2022/05/07 06:46:56;;;;;;;7.63;6.53;;;13.70;99.90;;;;;;5014865;28;20504;-67
2022/05/07 06:49:22;;;;;;;9.07;6.63;;;13.80;99.90;;;;;;4997509;28;20517;-67
2022/05/07 06:51:47;;;;;;;10.20;7.67;;;13.90;99.90;;;;;;5014719;28;20417;-65
2022/05/07 06:54:13;;;;;;;6.10;5.50;;;14.00;99.90;;;;;;5014220;28;20491;-66
2022/05/07 06:56:39;;;;;;;7.80;6.07;;;14.10;99.90;;;;;;4997131;28;20661;-67
2022/05/07 06:59:08;;;;;;;7.33;6.57;;;14.30;99.90;;;;;;5014313;28;20435;-67
2022/05/07 07:01:34;;;;;;;6.00;5.50;;;14.40;99.90;;;;;;5014472;28;20193;-66
2022/05/07 07:03:59;;;;;;;6.60;5.80;;;14.50;99.90;;;;;;5013565;28;20555;-66
2022/05/07 07:06:25;;;;;;;5.83;5.17;;;14.60;99.90;;;;;;5014070;28;20479;-66
2022/05/07 07:08:53;;;;;;;5.27;4.77;;;14.70;99.90;;;;;;5013990;28;20178;-67
2022/05/07 07:11:22;;;;;;;8.90;6.80;;;14.80;99.90;;;;;;4996500;28;20223;-66
2022/05/07 07:13:49;;;;;;;5.80;5.20;;;14.90;99.90;;;;;;5013743;28;20445;-67
2022/05/07 07:16:15;;;;;;;7.20;5.33;;;15.00;99.90;;;;;;5014006;28;20418;-68
2022/05/07 07:18:40;;;;;;;5.90;5.40;;;15.10;99.90;;;;;;5013853;28;20435;-64
2022/05/07 07:21:06;;;;;;;6.47;5.30;;;15.20;99.90;;;;;;5013910;28;20453;-67
2022/05/07 07:23:32;;;;;;;8.60;6.07;;;15.30;99.90;;;;;;5013646;28;20243;-70
2022/05/07 07:25:57;;;;;;;5.70;5.20;;;15.40;99.90;;;;;;5014370;28;20171;-74
2022/05/07 07:28:23;;;;;;;5.17;4.77;;;15.60;99.90;;;;;;5014023;28;20179;-72
2022/05/07 07:30:49;;;;;;;5.03;4.63;;;16.00;99.90;;;;;;5014004;28;20190;-68
2022/05/07 07:33:15;;;;;;;6.77;6.17;;;16.40;99.90;;;;;;5012921;28;20207;-67
2022/05/07 07:35:42;;;;;;;5.67;5.10;;;17.00;99.90;;;;;;5013766;28;20660;-68
2022/05/07 07:38:07;;;;;;;10.17;4.67;;;17.90;99.90;;;;;;5013699;28;20901;-66
2022/05/07 07:40:34;;;;;;;4.40;4.10;;;19.10;99.90;;;;;;5014137;28;20525;-66
2022/05/07 07:42:59;;;;;;;5.87;5.03;;;22.00;95.80;;;;;;5013446;28;20261;-66
2022/05/07 07:48:10;;;;;;;7.53;5.80;;;23.20;94.40;;;;;;5013939;28;20221;-68
2022/05/07 07:50:38;;;;;;;6.07;5.57;;;24.40;91.90;;;;;;5014093;28;20392;-68
2022/05/07 07:53:05;;;;;;;5.60;5.10;;;25.40;86.20;;;;;;5013355;28;20406;-65
2022/05/07 07:55:31;;;;;;;5.53;5.03;;;25.40;87.10;;;;;;5012801;28;20429;-68
2022/05/07 07:57:58;;;;;;;5.53;5.07;;;25.80;86.50;;;;;;5012549;28;20447;-67
2022/05/07 08:00:26;;;;;;;5.97;5.47;;;26.40;83.90;;;;;;4992250;28;20457;-67
2022/05/07 08:02:57;;;;;;;5.73;5.33;;;27.00;79.50;;;;;;4992566;28;20432;-68
2022/05/07 08:05:25;;;;;;;5.70;5.20;;;27.60;78.90;;;;;;4993564;28;20422;-68
2022/05/07 08:13:44;;;;;;;5.90;5.40;;;29.10;71.80;;;;;;4997660;28;21015;-68
2022/05/07 08:16:11;;;;;;;7.03;5.97;;;29.20;69.80;;;;;;5011337;28;20995;-67
2022/05/07 08:18:38;;;;;;;5.80;5.30;;;28.90;68.30;;;;;;5011692;28;20424;-68
2022/05/07 08:21:06;;;;;;;4.93;4.63;;;29.10;68.00;;;;;;5015556;28;20811;-68
2022/05/07 08:23:31;;;;;;;5.80;5.30;;;29.30;68.70;;;;;;5015039;28;21005;-67
2022/05/07 08:25:58;;;;;;;5.20;4.80;;;29.70;70.30;;;;;;5016270;28;20406;-67
2022/05/07 08:28:24;;;;;;;4.87;4.53;;;30.20;68.00;;;;;;5017083;28;20591;-68
2022/05/07 08:30:53;;;;;;;6.20;5.70;;;30.70;65.40;;;;;;5015376;28;20833;-69
2022/05/07 08:33:19;;;;;;;5.97;5.40;;;31.20;64.10;;;;;;5016730;28;20448;-68
2022/05/07 08:35:45;;;;;;;5.73;5.33;;;31.60;59.40;;;;;;5017106;28;20780;-67
2022/05/07 08:38:10;;;;;;;5.83;5.40;;;31.70;59.70;;;;;;5017300;28;20179;-66
2022/05/07 08:40:38;;;;;;;6.40;5.90;;;31.80;59.40;;;;;;5016853;28;20194;-68
2022/05/07 08:43:04;;;;;;;6.63;4.97;;;32.00;58.50;;;;;;5016194;28;20241;-68
2022/05/07 08:45:31;;;;;;;6.57;6.07;;;31.80;58.00;;;;;;5016946;28;20455;-67
2022/05/07 08:47:56;;;;;;;6.90;6.40;;;31.90;58.80;;;;;;5016807;28;20497;-68
2022/05/07 08:50:22;;;;;;;6.83;6.13;;;32.20;59.20;;;;;;5016819;28;20504;-66
2022/05/07 08:52:52;;;;;;;6.37;5.97;;;32.60;58.80;;;;;;5016287;28;20191;-68
2022/05/07 08:55:19;;;;;;;6.57;6.07;;;32.60;59.40;;;;;;5016853;28;20213;-68
2022/05/07 08:57:48;;;;;;;6.90;6.40;;;32.70;58.00;;;;;;5016273;28;20417;-68
2022/05/07 09:00:17;;;;;;;7.13;6.63;;;32.80;58.40;;;;;;5016849;28;20421;-69
2022/05/07 09:02:48;;;;;;;5.97;5.37;;;32.80;57.00;;;;;;5016212;28;20471;-67
2022/05/07 09:05:18;;;;;;;6.00;5.50;;;32.70;55.90;;;;;;5016101;28;20433;-68
2022/05/07 09:07:54;;;;;;;5.13;4.80;;;32.40;55.30;;;;;;5016329;28;20978;-68
2022/05/07 09:10:20;;;;;;;6.37;5.77;;;32.20;55.40;;;;;;5016452;28;20442;-67
2022/05/07 09:12:46;;;;;;;4.70;4.40;;;31.90;55.90;;;;;;5015784;28;20838;-70
2022/05/07 09:15:12;;;;;;;4.47;4.17;;;31.30;55.80;;;;;;5016155;28;20425;-70
2022/05/07 09:17:38;;;;;;;5.10;4.40;;;31.10;55.70;;;;;;5016357;28;20685;-69
2022/05/07 09:20:31;;;;;;;4.00;3.70;;;31.30;53.10;;;;;;5016193;28;20537;-70
2022/05/07 09:22:57;;;;;;;4.60;4.20;;;31.40;53.50;;;;;;5013356;28;20473;-67
2022/05/07 09:25:27;;;;;;;3.90;3.70;;;31.50;52.90;;;;;;5016617;28;20970;-70
2022/05/07 09:27:56;;;;;;;3.93;3.63;;;31.40;52.30;;;;;;5015460;28;20453;-68
2022/05/07 09:30:30;;;;;;;3.70;3.40;;;31.30;53.30;;;;;;5015083;28;20472;-69
2022/05/07 09:32:56;;;;;;;2.93;2.73;;;31.40;53.00;;;;;;5015739;28;20775;-69
2022/05/07 09:38:11;;;;;;;3.73;2.60;;;31.80;51.40;;;;;;5016213;28;20436;-69
2022/05/07 09:40:39;;;;;;;2.43;2.33;;;31.70;50.00;;;;;;5015777;28;20414;-70
2022/05/07 09:43:05;;;;;;;2.20;2.10;;;30.20;48.40;;;;;;5014910;28;20830;-69
2022/05/07 09:45:31;;;;;;;2.90;2.70;;;30.20;49.10;;;;;;5015391;28;20954;-69
2022/05/07 09:48:00;;;;;;;2.50;2.30;;;30.10;51.00;;;;;;5015432;28;20450;-68
2022/05/07 09:58:51;;;;;;;3.63;2.87;;;31.80;48.80;;;;;;5015705;28;20563;-69
2022/05/07 10:01:26;;;;;;;2.70;2.50;;;32.60;49.50;;;;;;5015343;28;20410;-68
2022/05/07 10:04:19;;;;;;;2.97;2.77;;;32.80;48.70;;;;;;5015236;28;20471;-71
2022/05/07 10:06:50;;;;;;;3.37;3.17;;;33.20;49.70;;;;;;5015079;28;20426;-67
2022/05/07 10:09:47;;;;;;;3.17;2.90;;;33.60;48.70;;;;;;5014973;28;20410;-67
2022/05/07 10:12:21;;;;;;;3.67;3.37;;;33.30;47.20;;;;;;5010400;28;20414;-69
2022/05/07 10:14:47;;;;;;;3.77;3.27;;;33.10;49.20;;;;;;5014142;28;20434;-68
2022/05/07 10:17:14;;;;;;;3.80;3.57;;;33.10;49.90;;;;;;5015386;28;20405;-68
2022/05/07 10:19:42;;;;;;;3.30;3.00;;;32.80;50.00;;;;;;5015102;28;20488;-66
2022/05/07 10:22:21;;;;;;;2.40;2.30;;;32.40;46.60;;;;;;5014311;28;20430;-67
2022/05/07 10:25:07;;;;;;;2.10;2.00;;;32.20;45.80;;;;;;5015090;28;20520;-67
2022/05/07 10:27:37;;;;;;;2.43;2.23;;;32.60;44.30;;;;;;5014140;28;20568;-67
2022/05/07 10:30:13;;;;;;;3.10;2.90;;;32.80;43.40;;;;;;5014972;28;20468;-69
2022/05/07 10:32:58;;;;;;;4.10;3.60;;;32.90;47.80;;;;;;5014558;28;20398;-69
2022/05/07 10:35:54;;;;;;;3.50;3.30;;;32.20;51.00;;;;;;5014884;28;20413;-70
2022/05/07 10:38:37;;;;;;;4.17;3.30;;;31.30;50.20;;;;;;5014758;28;20416;-68
2022/05/07 10:41:17;;;;;;;3.43;3.20;;;30.50;52.40;;;;;;5014767;28;20418;-68
2022/05/07 10:43:47;;;;;;;3.30;3.10;;;30.40;52.60;;;;;;5012721;28;20548;-69
2022/05/07 10:46:18;;;;;;;3.10;2.90;;;30.00;51.60;;;;;;5014732;28;20412;-68
2022/05/07 10:48:53;;;;;;;3.60;2.80;;;29.50;51.30;;;;;;5014207;28;20406;-69
2022/05/07 10:51:27;;;;;;;3.63;3.07;;;29.50;51.70;;;;;;5014379;28;20496;-68
2022/05/07 10:53:59;;;;;;;3.27;3.07;;;29.50;52.60;;;;;;5013871;28;20826;-68
2022/05/07 10:56:25;;;;;;;2.90;2.70;;;29.60;52.50;;;;;;5014343;28;20385;-68
2022/05/07 10:58:57;;;;;;;3.27;2.97;;;29.60;54.10;;;;;;5014204;28;20433;-69
2022/05/07 11:01:25;;;;;;;2.93;2.73;;;29.50;52.20;;;;;;5014319;28;20450;-68
2022/05/07 11:04:08;;;;;;;3.73;2.83;;;29.30;51.40;;;;;;5013488;28;20560;-68
2022/05/07 11:06:39;;;;;;;2.70;2.40;;;29.50;52.10;;;;;;5014351;28;20853;-68
2022/05/07 11:09:06;;;;;;;2.80;2.60;;;29.40;49.90;;;;;;4996376;28;20928;-67
2022/05/07 11:11:44;;;;;;;2.07;1.97;;;28.60;48.90;;;;;;5014282;28;20459;-69
2022/05/07 11:14:11;;;;;;;2.20;2.10;;;27.60;50.60;;;;;;5013674;28;20392;-67
2022/05/07 11:16:41;;;;;;;1.80;1.70;;;27.00;51.30;;;;;;5013971;28;20393;-67
2022/05/07 11:19:07;;;;;;;2.27;2.17;;;26.40;51.50;;;;;;5014575;28;20449;-69
2022/05/07 11:21:36;;;;;;;2.60;1.93;;;25.80;51.50;;;;;;5014180;28;20433;-69
2022/05/07 11:24:02;;;;;;;2.00;1.90;;;25.20;52.60;;;;;;5013077;28;20538;-69
2022/05/07 11:26:28;;;;;;;2.27;2.03;;;24.80;53.20;;;;;;5013651;28;20421;-68
2022/05/07 11:28:55;;;;;;;1.80;1.70;;;24.30;51.90;;;;;;5013651;28;20171;-69
2022/05/07 11:31:31;;;;;;;4.30;1.70;;;24.00;53.90;;;;;;5014078;28;20421;-67
2022/05/07 11:34:10;;;;;;;1.40;1.30;;;23.60;53.20;;;;;;4995592;28;20536;-69
2022/05/07 11:36:37;;;;;;;1.83;1.30;;;23.30;54.20;;;;;;5013239;28;20874;-68
2022/05/07 11:39:07;;;;;;;1.83;1.73;;;23.20;58.30;;;;;;5013146;28;20754;-70
2022/05/07 11:41:34;;;;;;;1.40;1.30;;;23.10;55.60;;;;;;5013574;28;20391;-69
2022/05/07 11:46:51;;;;;;;1.97;1.80;;;22.80;54.90;;;;;;5013320;28;20413;-69
2022/05/07 11:49:34;;;;;;;1.87;1.67;;;22.60;54.30;;;;;;5013608;28;20569;-68
2022/05/07 11:52:08;;;;;;;1.13;1.13;;;22.50;54.50;;;;;;5012739;28;20750;-68
2022/05/07 11:54:34;;;;;;;2.00;1.67;;;22.50;55.10;;;;;;4995316;28;20826;-68
2022/05/07 11:56:59;;;;;;;2.50;2.30;;;22.60;55.80;;;;;;5013297;28;20437;-70
2022/05/07 11:59:26;;;;;;;1.37;1.37;;;22.60;55.20;;;;;;5013186;28;20393;-68
2022/05/07 12:01:51;;;;;;;1.23;1.20;;;22.70;54.90;;;;;;5013350;28;20582;-70
2022/05/07 12:04:18;;;;;;;1.40;1.30;;;22.70;54.60;;;;;;5012590;28;20499;-69
2022/05/07 12:06:56;;;;;;;1.93;1.83;;;22.60;54.20;;;;;;5013220;28;20450;-68
2022/05/07 12:09:26;;;;;;;2.10;2.00;;;22.60;54.70;;;;;;5013083;28;20169;-69
2022/05/07 12:11:51;;;;;;;1.93;1.83;;;22.60;54.90;;;;;;5012967;28;20401;-68
2022/05/07 12:14:17;;;;;;;2.13;2.00;;;22.70;58.10;;;;;;5012278;28;20456;-68
2022/05/07 12:19:28;;;;;;;1.97;1.87;;;22.90;58.70;;;;;;5013502;28;20189;-67
2022/05/07 12:30:06;;;;;;;2.10;1.60;;;23.00;58.70;;;;;;4993335;28;20373;-69
2022/05/07 12:32:32;;;;;;;2.23;2.03;;;22.90;57.40;;;;;;4991816;28;20396;-69
2022/05/07 12:34:57;;;;;;;2.60;1.83;;;22.60;57.80;;;;;;4993272;28;21001;-70
2022/05/07 12:37:23;;;;;;;3.83;1.93;;;22.50;58.60;;;;;;4992304;28;20176;-68
2022/05/07 12:39:49;;;;;;;1.83;1.73;;;22.40;58.80;;;;;;4993501;28;20203;-69
2022/05/07 12:42:15;;;;;;;2.43;2.20;;;22.20;59.30;;;;;;4994156;28;20182;-69
2022/05/07 12:44:45;;;;;;;1.70;1.60;;;22.10;60.80;;;;;;5013048;28;20235;-68
2022/05/07 12:47:11;;;;;;;1.70;1.60;;;22.10;60.00;;;;;;5012908;28;20475;-69
2022/05/07 12:49:37;;;;;;;1.87;1.77;;;22.20;61.10;;;;;;5013138;28;20419;-68
2022/05/07 12:52:06;;;;;;;1.77;1.67;;;22.30;60.50;;;;;;5012720;28;20398;-70
2022/05/07 12:54:32;;;;;;;1.90;1.80;;;22.40;58.30;;;;;;5012878;28;20408;-70
2022/05/07 12:56:58;;;;;;;1.53;1.43;;;22.30;57.90;;;;;;5012831;28;20410;-69
2022/05/07 12:59:24;;;;;;;1.97;1.87;;;22.40;58.30;;;;;;4995660;28;20438;-68
2022/05/07 13:01:49;;;;;;;1.50;1.50;;;22.50;59.00;;;;;;5013268;28;20178;-70
2022/05/07 13:04:15;;;;;;;1.90;1.80;;;22.60;58.80;;;;;;5012387;28;20213;-69
2022/05/07 13:06:41;;;;;;;2.10;1.73;;;22.70;58.40;;;;;;5014979;28;20212;-69
2022/05/07 13:09:07;;;;;;;1.37;1.37;;;22.80;57.30;;;;;;5016633;28;20185;-67
2022/05/07 13:11:33;;;;;;;1.37;1.27;;;23.00;58.20;;;;;;5016569;28;20440;-68
2022/05/07 13:13:59;;;;;;;1.90;1.80;;;23.20;57.50;;;;;;5015458;28;20447;-68
2022/05/07 13:16:25;;;;;;;1.47;1.37;;;23.50;58.10;;;;;;5015864;28;20179;-68
2022/05/07 13:18:51;;;;;;;1.73;1.63;;;23.80;58.70;;;;;;5015989;28;20425;-69
2022/05/07 13:21:16;;;;;;;3.07;1.97;;;24.00;57.00;;;;;;5016307;28;20529;-69
2022/05/07 13:23:42;;;;;;;1.90;1.80;;;24.00;57.10;;;;;;5015628;28;20710;-69
2022/05/07 13:26:08;;;;;;;1.67;1.57;;;24.00;57.20;;;;;;5016255;28;20179;-69
2022/05/07 13:28:34;;;;;;;2.10;1.90;;;24.00;55.50;;;;;;5015963;28;20236;-69
2022/05/07 13:31:00;;;;;;;2.13;1.77;;;23.80;55.60;;;;;;5016240;28;20167;-68
2022/05/07 13:33:27;;;;;;;1.93;1.83;;;23.80;55.90;;;;;;5015570;28;20423;-69
2022/05/07 13:35:53;;;;;;;1.77;1.67;;;23.80;56.10;;;;;;5015921;28;20389;-69
2022/05/07 13:38:19;;;;;;;3.07;2.17;;;23.80;56.10;;;;;;5015983;28;20417;-69
2022/05/07 13:40:45;;;;;;;2.10;2.00;;;23.70;56.20;;;;;;5014583;28;20898;-67
2022/05/07 13:43:11;;;;;;;2.57;1.80;;;23.80;58.30;;;;;;5014914;28;20428;-68
2022/05/07 13:45:37;;;;;;;2.00;1.90;;;23.80;59.10;;;;;;5015933;28;20190;-68
2022/05/07 13:48:05;;;;;;;1.87;1.77;;;23.80;57.20;;;;;;5015877;28;20477;-68
2022/05/07 13:50:32;;;;;;;1.93;1.83;;;23.60;56.20;;;;;;5015940;28;20760;-68
2022/05/07 13:52:58;;;;;;;1.23;1.23;;;23.50;58.00;;;;;;5015086;28;20453;-68
2022/05/07 13:55:24;;;;;;;3.27;1.70;;;23.20;58.40;;;;;;5015868;28;20410;-69
2022/05/07 13:57:50;;;;;;;1.40;1.40;;;23.10;56.70;;;;;;5015352;28;20395;-69
2022/05/07 14:00:16;;;;;;;7.80;2.77;;;22.90;56.90;;;;;;5015488;28;20530;-69
2022/05/07 14:02:46;;;;;;;2.07;1.60;;;22.90;57.50;;;;;;5014762;28;20167;-69
2022/05/07 14:05:15;;;;;;;2.33;2.13;;;22.90;56.60;;;;;;5015231;28;20457;-71
2022/05/07 14:07:41;;;;;;;2.00;1.67;;;22.80;56.20;;;;;;5015796;28;20377;-68
2022/05/07 14:10:08;;;;;;;5.23;1.77;;;22.50;56.70;;;;;;5015217;28;20851;-72
2022/05/07 14:12:34;;;;;;;2.17;1.97;;;22.30;57.30;;;;;;5013502;28;20398;-68
2022/05/07 14:15:00;;;;;;;2.47;2.27;;;22.10;59.30;;;;;;5015000;28;20413;-69
2022/05/07 14:17:25;;;;;;;2.20;2.00;;;22.10;60.70;;;;;;5014836;28;20411;-68
2022/05/07 14:19:52;;;;;;;1.80;1.70;;;22.20;60.00;;;;;;5014555;28;20171;-67
2022/05/07 14:22:19;;;;;;;2.53;2.33;;;22.30;59.80;;;;;;5014618;28;20174;-69
2022/05/07 14:24:44;;;;;;;3.63;2.27;;;22.50;59.90;;;;;;5014849;28;20855;-69
2022/05/07 14:27:10;;;;;;;2.67;2.47;;;22.60;57.70;;;;;;5013604;28;20387;-68
2022/05/07 14:29:36;;;;;;;2.43;2.30;;;22.70;57.30;;;;;;5014803;28;20190;-69
2022/05/07 14:32:04;;;;;;;2.20;2.10;;;22.80;57.50;;;;;;5014146;28;20784;-69
2022/05/07 14:34:30;;;;;;;2.50;2.30;;;22.80;57.80;;;;;;5014102;28;20407;-69
2022/05/07 14:36:56;;;;;;;4.67;3.20;;;22.70;58.20;;;;;;5014843;28;20388;-68
2022/05/07 14:39:23;;;;;;;2.90;2.70;;;22.60;59.30;;;;;;5014730;28;20433;-70
2022/05/07 14:41:48;;;;;;;2.63;2.50;;;22.60;58.70;;;;;;5014724;28;20405;-70
2022/05/07 14:44:14;;;;;;;2.73;2.53;;;22.50;58.20;;;;;;5013914;28;20486;-69
2022/05/07 14:46:40;;;;;;;2.80;2.60;;;22.40;58.60;;;;;;5014270;28;20209;-70
2022/05/07 14:49:06;;;;;;;3.30;3.10;;;22.40;58.50;;;;;;5014778;28;20201;-70
2022/05/07 14:51:33;;;;;;;2.63;2.43;;;22.40;58.60;;;;;;5014576;28;20235;-69
2022/05/07 14:53:59;;;;;;;3.10;2.90;;;22.40;58.60;;;;;;5013992;28;20400;-68
2022/05/07 14:56:24;;;;;;;3.03;2.83;;;22.40;58.80;;;;;;5014385;28;20397;-69
2022/05/07 14:58:50;;;;;;;3.50;3.17;;;22.50;59.60;;;;;;5014394;28;20607;-69
2022/05/07 15:01:16;;;;;;;2.93;2.70;;;22.40;59.80;;;;;;5014359;28;20236;-68
2022/05/07 15:03:42;;;;;;;3.50;2.57;;;22.40;59.40;;;;;;5013864;28;20285;-70
2022/05/07 15:06:08;;;;;;;3.60;3.30;;;22.40;58.90;;;;;;5014383;28;20389;-68
2022/05/07 15:11:22;;;;;;;4.67;3.20;;;22.40;59.60;;;;;;5014891;28;20240;-68
2022/05/07 15:13:49;;;;;;;2.80;2.60;;;22.50;59.30;;;;;;5013517;28;20455;-69
2022/05/07 15:16:15;;;;;;;3.87;3.47;;;22.60;59.30;;;;;;5014400;28;20413;-68
2022/05/07 15:18:41;;;;;;;3.17;2.83;;;22.60;59.10;;;;;;4997338;28;20901;-68
2022/05/07 15:21:07;;;;;;;3.00;2.80;;;22.60;59.00;;;;;;5014302;28;20395;-68
2022/05/07 15:23:32;;;;;;;2.50;2.40;;;22.60;58.50;;;;;;5011564;28;20432;-70
2022/05/07 15:25:58;;;;;;;3.67;3.37;;;22.60;58.80;;;;;;5014020;28;20378;-66
2022/05/07 15:28:24;;;;;;;2.93;2.73;;;22.70;59.60;;;;;;5012992;28;20171;-66
2022/05/07 15:30:53;;;;;;;3.17;2.87;;;22.70;58.90;;;;;;5015329;28;20177;-66
2022/05/07 15:38:50;;;;;;;3.30;3.10;;;22.90;58.90;;;;;;5010642;28;20938;-66
2022/05/07 15:41:17;;;;;;;4.10;3.70;;;22.80;59.20;;;;;;5013029;28;20387;-66
2022/05/07 15:43:42;;;;;;;4.27;4.00;;;22.70;60.00;;;;;;5013118;28;20471;-66
2022/05/07 15:46:08;;;;;;;3.43;3.23;;;22.50;59.60;;;;;;5013568;28;20895;-65
2022/05/07 15:48:34;;;;;;;3.83;3.53;;;22.30;60.30;;;;;;5013613;28;20175;-65
2022/05/07 15:51:01;;;;;;;3.40;3.10;;;22.10;60.60;;;;;;5012838;28;20661;-68
2022/05/07 15:53:27;;;;;;;3.50;3.30;;;22.00;60.00;;;;;;5012525;28;20445;-75
2022/05/07 15:55:53;;;;;;;3.40;3.10;;;21.80;59.90;;;;;;5013295;28;20551;-73
2022/05/07 15:58:19;;;;;;;3.90;3.30;;;21.60;59.80;;;;;;5012989;28;20232;-74
2022/05/07 16:00:45;;;;;;;3.27;2.63;;;21.30;64.20;;;;;;5012286;28;20217;-75
2022/05/07 16:03:10;;;;;;;2.97;2.77;;;21.50;59.60;;;;;;5012057;28;20990;-73
2022/05/07 16:05:36;;;;;;;5.07;3.00;;;21.40;59.70;;;;;;5012893;28;20512;-74
2022/05/07 16:08:02;;;;;;;3.93;3.60;;;21.40;60.20;;;;;;5013465;28;20438;-73
2022/05/07 16:10:28;;;;;;;3.70;2.90;;;21.50;60.00;;;;;;5013635;28;20402;-76
2022/05/07 16:12:56;;;;;;;3.60;3.17;;;21.40;60.60;;;;;;5012751;28;20406;-74
2022/05/07 16:15:21;;;;;;;3.30;2.87;;;21.40;61.10;;;;;;5012788;28;20202;-74
2022/05/07 16:17:47;;;;;;;7.10;4.23;;;21.40;60.60;;;;;;5011744;28;20870;-73
2022/05/07 16:20:13;;;;;;;3.80;3.47;;;21.30;60.90;;;;;;5012389;28;20171;-76
2022/05/07 16:25:24;;;;;;;3.13;2.87;;;21.20;61.70;;;;;;5013717;28;20671;-73
2022/05/07 16:27:50;;;;;;;4.00;3.20;;;21.20;61.60;;;;;;5013162;28;20410;-75
2022/05/07 16:30:16;;;;;;;2.63;2.50;;;21.10;60.80;;;;;;5012378;28;20384;-75
2022/05/07 16:32:41;;;;;;;3.23;2.93;;;21.10;60.80;;;;;;5012961;28;20533;-77
2022/05/07 16:35:08;;;;;;;3.17;2.87;;;21.00;60.90;;;;;;5013571;28;20190;-76
2022/05/07 16:37:33;;;;;;;2.80;2.60;;;20.90;60.90;;;;;;4995237;28;20179;-71
2022/05/07 16:39:59;;;;;;;3.33;3.10;;;20.80;61.30;;;;;;5014053;28;20421;-76
2022/05/07 16:42:25;;;;;;;2.73;2.53;;;20.70;61.80;;;;;;5016824;28;20171;-70
2022/05/07 16:44:51;;;;;;;3.63;3.33;;;20.70;62.70;;;;;;5016668;28;20211;-74
2022/05/07 16:47:16;;;;;;;2.87;2.67;;;20.60;62.70;;;;;;5017052;28;20171;-76
2022/05/07 16:49:42;;;;;;;4.57;4.17;;;20.60;62.60;;;;;;5016743;28;20409;-74
2022/05/07 16:52:09;;;;;;;3.57;3.07;;;20.60;62.40;;;;;;4999055;28;20179;-75
2022/05/07 16:54:35;;;;;;;4.70;3.40;;;20.60;62.50;;;;;;5017271;28;20191;-73
2022/05/07 16:57:01;;;;;;;3.13;2.93;;;20.50;63.10;;;;;;5017238;28;20380;-70
2022/05/07 16:59:27;;;;;;;3.00;2.70;;;20.50;63.70;;;;;;5017081;28;20408;-72
2022/05/07 17:01:53;;;;;;;3.13;2.93;;;20.60;62.70;;;;;;5017851;28;20412;-71
2022/05/07 17:04:24;;;;;;;3.10;2.90;;;20.60;63.20;;;;;;5016197;28;21029;-71
2022/05/07 17:06:50;;;;;;;2.80;2.60;;;20.60;64.40;;;;;;5016887;28;20874;-72
2022/05/07 17:09:16;;;;;;;3.23;2.93;;;20.60;64.30;;;;;;5016789;28;20401;-68
2022/05/07 17:11:42;;;;;;;3.77;3.47;;;20.60;64.00;;;;;;5016701;28;20488;-69
2022/05/07 17:14:08;;;;;;;2.63;2.43;;;20.60;63.70;;;;;;5015568;28;20207;-64
2022/05/07 17:16:33;;;;;;;2.90;2.70;;;20.60;63.00;;;;;;5016706;28;20240;-66
2022/05/07 17:18:59;;;;;;;2.87;2.67;;;20.60;63.00;;;;;;5016668;28;20889;-70
2022/05/07 17:21:25;;;;;;;5.40;2.70;;;20.60;63.40;;;;;;5016637;28;20282;-71
2022/05/07 17:23:50;;;;;;;2.67;2.43;;;20.60;62.50;;;;;;5016084;28;20289;-72
2022/05/07 17:26:16;;;;;;;4.07;3.77;;;20.60;62.50;;;;;;5016225;28;20261;-73
2022/05/07 17:28:42;;;;;;;2.93;2.60;;;20.60;62.00;;;;;;4998455;28;20187;-73
2022/05/07 17:31:07;;;;;;;3.33;3.07;;;20.60;61.90;;;;;;5016270;28;20557;-72
2022/05/07 17:33:36;;;;;;;2.87;2.67;;;20.50;62.40;;;;;;5015689;28;20288;-71
2022/05/07 17:36:04;;;;;;;3.17;2.97;;;20.40;62.40;;;;;;5015987;28;20225;-73
2022/05/07 17:38:31;;;;;;;3.23;3.00;;;20.40;62.60;;;;;;5016024;28;20388;-72
2022/05/07 17:40:57;;;;;;;2.80;2.53;;;20.40;62.80;;;;;;4998414;28;20576;-74
2022/05/07 17:43:22;;;;;;;3.20;3.00;;;20.30;62.40;;;;;;5015169;28;20436;-71